Time;durP1;ratioP1;P1;durP2;ratioP2;P2;SDS_P1;SDS_P2;PMS_P1;PMS_P2;Temp;Humidity;BMP_temperature;BMP_pressure;BME280_temperature;BME280_humidity;BME280_pressure;Samples;Min_cycle;Max_cycle;Signal;HPM_P1;HPM_P2
2023/04/24 00:01:16;;;;;;;19.60;6.35;;;;;;;11.86;36.91;99775.88;5093730;28;20359;-60
2023/04/24 00:03:42;;;;;;;11.23;5.45;;;;;;;11.98;37.61;99806.16;5093772;28;20492;-58
2023/04/24 00:06:08;;;;;;;14.05;5.68;;;;;;;11.99;36.40;99810.53;5075588;28;20110;-57
2023/04/24 00:08:36;;;;;;;12.98;5.70;;;;;;;11.93;38.17;99798.50;5093097;28;20047;-58
2023/04/24 00:11:02;;;;;;;14.75;6.65;;;;;;;11.87;37.90;99810.63;5094083;28;20040;-58
2023/04/24 00:13:30;;;;;;;14.20;6.20;;;;;;;11.79;37.12;99797.03;5076148;28;20024;-55
2023/04/24 00:15:56;;;;;;;16.27;6.03;;;;;;;11.85;37.42;99803.69;5093682;28;20032;-60
2023/04/24 00:18:21;;;;;;;14.07;6.90;;;;;;;11.82;36.77;99806.66;5093374;28;20108;-54
2023/04/24 00:20:47;;;;;;;10.40;6.00;;;;;;;11.80;38.14;99805.94;5093400;28;20046;-59
2023/04/24 00:23:13;;;;;;;16.17;6.63;;;;;;;11.78;37.86;99820.31;5092150;28;20039;-56
2023/04/24 00:25:39;;;;;;;16.73;6.13;;;;;;;11.74;38.60;99812.66;5074903;28;20097;-64
2023/04/24 00:28:05;;;;;;;14.85;6.28;;;;;;;11.71;39.01;99811.13;5093176;28;20032;-58
2023/04/24 00:30:31;;;;;;;17.20;6.22;;;;;;;11.67;37.94;99804.28;5093006;28;20032;-56
2023/04/24 00:32:57;;;;;;;15.82;7.15;;;;;;;11.61;38.11;99805.69;5074532;28;20038;-55
2023/04/24 00:35:23;;;;;;;17.92;7.28;;;;;;;11.64;37.99;99809.91;5093195;28;20089;-57
2023/04/24 00:37:48;;;;;;;12.07;7.35;;;;;;;11.58;37.73;99802.41;5092891;28;20127;-55
2023/04/24 00:40:14;;;;;;;15.85;7.45;;;;;;;11.57;38.48;99804.22;5092589;28;20052;-58
2023/04/24 00:42:40;;;;;;;19.48;8.13;;;;;;;11.60;37.73;99813.84;5075357;28;20040;-56
2023/04/24 00:45:06;;;;;;;17.52;8.57;;;;;;;11.57;38.23;99814.94;5092584;28;20110;-62
2023/04/24 00:47:36;;;;;;;19.20;9.02;;;;;;;11.61;37.49;99810.19;5093313;28;20028;-59
2023/04/24 00:50:05;;;;;;;18.95;7.18;;;;;;;11.56;38.91;99812.41;5093113;28;20034;-56
2023/04/24 00:52:32;;;;;;;20.08;9.27;;;;;;;11.44;37.78;99804.41;5092725;28;20031;-57
2023/04/24 00:54:58;;;;;;;19.80;9.25;;;;;;;11.52;37.63;99810.97;5092748;28;20351;-56
2023/04/24 00:57:25;;;;;;;21.63;9.57;;;;;;;11.47;36.86;99792.59;5092236;28;20046;-57
2023/04/24 00:59:51;;;;;;;21.85;9.93;;;;;;;11.13;36.72;99733.84;5092672;28;20035;-57
2023/04/24 01:02:17;;;;;;;21.08;8.43;;;;;;;11.55;38.64;99811.56;5092507;28;20114;-55
2023/04/24 01:04:43;;;;;;;20.50;9.32;;;;;;;11.47;37.43;99801.50;5092129;28;20170;-58
2023/04/24 01:07:11;;;;;;;16.08;8.90;;;;;;;11.48;38.28;99810.38;5092604;28;20120;-55
2023/04/24 01:09:43;;;;;;;24.95;9.23;;;;;;;11.47;37.71;99808.69;5092547;28;20110;-67
2023/04/24 01:12:09;;;;;;;24.20;10.13;;;;;;;11.40;37.95;99810.19;5093045;28;20028;-52
2023/04/24 01:14:35;;;;;;;22.05;8.40;;;;;;;11.36;39.14;99819.47;5075240;28;20088;-62
2023/04/24 01:17:01;;;;;;;20.05;9.43;;;;;;;11.32;38.21;99811.66;5092533;28;20032;-60
2023/04/24 01:19:27;;;;;;;24.30;9.35;;;;;;;11.30;38.41;99810.94;5074640;28;20416;-58
2023/04/24 01:21:57;;;;;;;22.45;8.93;;;;;;;11.26;39.29;99809.50;5092111;28;20043;-57
2023/04/24 01:24:22;;;;;;;21.17;8.75;;;;;;;11.19;39.91;99794.94;5092451;28;20090;-62
2023/04/24 01:26:48;;;;;;;26.65;10.02;;;;;;;11.24;38.33;99803.44;5092468;28;20399;-59
2023/04/24 01:29:13;;;;;;;25.02;11.30;;;;;;;11.30;37.28;99807.44;5075216;28;20072;-59
2023/04/24 01:31:39;;;;;;;21.10;10.45;;;;;;;11.30;37.18;99802.91;5092392;28;20063;-62
2023/04/24 01:34:05;;;;;;;26.95;10.13;;;;;;;11.28;38.32;99804.88;5093866;28;20032;-57
2023/04/24 01:36:32;;;;;;;20.65;9.20;;;;;;;11.21;38.65;99801.00;5095897;28;20354;-61
2023/04/24 01:38:57;;;;;;;25.23;10.20;;;;;;;11.18;38.94;99803.97;5096546;28;20047;-57
2023/04/24 01:41:23;;;;;;;26.13;10.55;;;;;;;11.18;38.13;99809.31;5096588;28;20032;-57
2023/04/24 01:43:49;;;;;;;22.38;11.05;;;;;;;11.22;37.40;99805.41;5096409;28;20119;-58
2023/04/24 01:46:15;;;;;;;19.77;10.27;;;;;;;11.22;38.67;99801.88;5095805;28;20437;-59
2023/04/24 01:48:41;;;;;;;28.40;10.77;;;;;;;11.19;37.46;99795.78;5096532;28;20032;-57
2023/04/24 01:51:07;;;;;;;26.90;11.25;;;;;;;10.88;37.63;99743.94;5096511;28;20043;-59
2023/04/24 01:53:33;;;;;;;24.20;11.00;;;;;;;11.23;37.45;99796.38;5077913;28;20058;-58
2023/04/24 01:55:58;;;;;;;20.58;10.52;;;;;;;11.19;38.83;99795.78;5096425;28;20058;-57
2023/04/24 01:58:24;;;;;;;31.08;11.50;;;;;;;11.12;38.72;99794.59;5096102;28;20059;-61
2023/04/24 02:00:50;;;;;;;20.75;10.75;;;;;;;11.12;38.22;99799.13;5094352;28;20111;-61
2023/04/24 02:03:15;;;;;;;26.00;11.02;;;;;;;11.10;38.91;99790.34;5094970;28;20420;-58
2023/04/24 02:05:44;;;;;;;22.48;10.52;;;;;;;11.10;38.08;99788.50;5095169;28;20036;-60
2023/04/24 02:08:09;;;;;;;26.33;12.57;;;;;;;11.14;37.64;99789.13;5077233;28;20028;-66
2023/04/24 02:10:35;;;;;;;25.00;11.27;;;;;;;11.16;37.27;99787.16;5096564;28;20042;-59
2023/04/24 02:13:00;;;;;;;25.70;11.40;;;;;;;11.18;38.77;99790.56;5095570;28;20522;-59
2023/04/24 02:15:26;;;;;;;16.38;11.20;;;;;;;11.17;37.81;99794.22;5093663;28;20122;-58
2023/04/24 02:17:52;;;;;;;24.42;11.13;;;;;;;11.16;38.42;99792.53;5095797;28;20103;-58
2023/04/24 02:20:17;;;;;;;22.85;10.82;;;;;;;11.01;38.95;99755.31;5095261;28;20028;-58
2023/04/24 02:22:43;;;;;;;24.55;11.70;;;;;;;11.25;37.46;99790.91;5095332;28;20032;-58
2023/04/24 02:25:09;;;;;;;31.85;11.13;;;;;;;11.25;38.73;99798.94;5095890;28;20035;-58
2023/04/24 02:27:34;;;;;;;22.17;11.55;;;;;;;11.27;38.12;99799.66;5061091;28;20028;-59
2023/04/24 02:30:00;;;;;;;19.85;10.95;;;;;;;11.29;38.73;99801.22;5095474;28;20024;-58
2023/04/24 02:32:26;;;;;;;23.42;12.02;;;;;;;11.34;37.63;99793.66;5094889;28;20103;-59
2023/04/24 02:34:52;;;;;;;21.27;11.23;;;;;;;11.41;37.59;99806.53;5077470;28;20197;-57
2023/04/24 02:37:17;;;;;;;22.60;11.00;;;;;;;11.44;38.30;99798.22;5077584;28;20451;-60
2023/04/24 02:39:43;;;;;;;23.48;11.40;;;;;;;11.46;38.53;99805.16;5077258;28;20044;-58
2023/04/24 02:42:09;;;;;;;21.52;11.73;;;;;;;11.56;37.24;99802.53;5095486;28;20048;-58
2023/04/24 02:44:35;;;;;;;21.35;11.27;;;;;;;11.60;37.47;99812.03;5095242;28;20439;-61
2023/04/24 02:47:00;;;;;;;18.92;11.55;;;;;;;11.67;36.92;99804.28;5094822;28;20106;-59
2023/04/24 02:49:26;;;;;;;20.52;11.35;;;;;;;11.73;38.28;99809.16;5094951;28;20541;-58
2023/04/24 02:51:52;;;;;;;19.67;12.23;;;;;;;11.82;36.72;99810.19;5094864;28;20043;-57
2023/04/24 02:54:17;;;;;;;21.95;11.50;;;;;;;11.78;36.22;99792.63;5095005;28;20413;-57
2023/04/24 02:56:43;;;;;;;19.25;11.95;;;;;;;12.04;35.80;99811.03;5057070;28;20453;-57
2023/04/24 02:59:08;;;;;;;20.40;12.55;;;;;;;12.14;35.56;99811.94;5075283;28;20086;-60
2023/04/24 03:01:34;;;;;;;20.80;11.85;;;;;;;12.03;35.83;99777.97;5074963;28;20036;-58
2023/04/24 03:03:59;;;;;;;24.15;11.70;;;;;;;12.32;37.11;99803.25;5074716;28;20462;-59
2023/04/24 03:06:26;;;;;;;22.92;11.93;;;;;;;12.39;36.52;99803.53;5074784;28;20459;-64
2023/04/24 03:08:52;;;;;;;18.20;11.15;;;;;;;12.52;36.14;99814.03;5087098;28;20103;-55
2023/04/24 03:11:18;;;;;;;18.02;11.32;;;;;;;12.61;36.76;99813.22;5077123;28;20373;-57
2023/04/24 03:13:43;;;;;;;19.00;11.70;;;;;;;12.72;35.13;99812.25;5094823;28;20040;-66
2023/04/24 03:16:09;;;;;;;23.55;12.15;;;;;;;12.83;35.04;99811.28;5095086;28;20486;-57
2023/04/24 03:18:34;;;;;;;17.35;11.23;;;;;;;12.94;34.68;99813.00;5094600;28;20032;-55
2023/04/24 03:21:00;;;;;;;22.38;11.98;;;;;;;13.03;36.76;99821.09;5094149;28;20024;-56
2023/04/24 03:23:26;;;;;;;16.75;11.18;;;;;;;13.16;34.34;99817.25;5076655;28;20067;-56
2023/04/24 03:25:52;;;;;;;16.85;10.75;;;;;;;13.28;34.96;99824.22;5094336;28;20047;-59
2023/04/24 03:28:17;;;;;;;20.25;11.05;;;;;;;13.39;33.72;99816.97;5094336;28;20054;-58
2023/04/24 03:30:43;;;;;;;16.90;11.02;;;;;;;13.57;34.05;99823.38;5094672;28;20028;-56
2023/04/24 03:33:09;;;;;;;22.42;11.45;;;;;;;13.70;34.45;99825.75;5059824;28;20071;-54
2023/04/24 03:35:36;;;;;;;16.40;10.57;;;;;;;13.90;33.91;99825.72;5076800;28;20036;-59
2023/04/24 03:38:01;;;;;;;19.65;11.30;;;;;;;14.16;32.85;99820.53;5094244;28;20043;-60
2023/04/24 03:40:29;;;;;;;22.35;12.00;;;;;;;14.87;31.96;99823.63;5093692;28;20044;-60
2023/04/24 03:42:54;;;;;;;19.55;11.40;;;;;;;16.21;29.54;99829.09;5094351;28;20079;-60
2023/04/24 03:45:20;;;;;;;23.52;11.80;;;;;;;17.67;27.18;99820.84;5093923;28;20049;-56
2023/04/24 03:47:45;;;;;;;22.35;11.77;;;;;;;19.05;25.08;99819.75;5076253;28;20361;-65
2023/04/24 03:50:11;;;;;;;22.30;10.45;;;;;;;20.29;23.35;99819.69;5076501;28;20025;-63
2023/04/24 03:52:36;;;;;;;20.88;11.05;;;;;;;21.27;21.67;99800.34;5093500;28;20078;-61
2023/04/24 03:55:02;;;;;;;15.32;10.35;;;;;;;22.47;20.13;99825.97;5076352;28;20036;-57
2023/04/24 03:57:30;;;;;;;18.77;10.65;;;;;;;23.40;19.04;99823.78;5093420;28;20043;-60
2023/04/24 03:59:55;;;;;;;19.08;10.30;;;;;;;24.23;18.19;99828.78;5093242;28;20028;-63
2023/04/24 04:02:21;;;;;;;12.23;10.20;;;;;;;25.06;17.27;99818.16;5093600;28;20034;-61
2023/04/24 04:04:46;;;;;;;18.92;9.77;;;;;;;25.70;16.84;99827.44;5093968;28;20044;-66
2023/04/24 04:07:12;;;;;;;14.77;10.13;;;;;;;26.21;16.14;99809.88;5093964;28;20108;-60
2023/04/24 04:09:38;;;;;;;19.73;9.85;;;;;;;26.98;15.25;99835.16;5093261;28;20108;-59
2023/04/24 04:12:04;;;;;;;13.07;9.80;;;;;;;27.62;14.73;99834.66;5075966;28;20063;-59
2023/04/24 04:14:29;;;;;;;16.48;10.00;;;;;;;28.28;14.17;99830.16;5093401;28;20117;-61
2023/04/24 04:16:55;;;;;;;19.40;10.27;;;;;;;28.92;13.46;99835.66;5075819;28;20059;-60
2023/04/24 04:19:20;;;;;;;12.10;10.00;;;;;;;29.56;12.92;99833.78;5093034;28;20336;-60
2023/04/24 04:21:50;;;;;;;15.48;9.63;;;;;;;30.04;12.97;99831.53;5093483;28;20047;-61
2023/04/24 04:24:16;;;;;;;12.88;9.40;;;;;;;30.65;12.17;99838.19;5075501;28;20036;-61
2023/04/24 04:26:46;;;;;;;12.48;9.27;;;;;;;31.10;11.88;99832.56;5092957;28;20031;-60
2023/04/24 04:29:13;;;;;;;12.43;9.48;;;;;;;31.30;11.57;99838.34;5092911;28;20121;-61
2023/04/24 04:31:39;;;;;;;16.85;10.38;;;;;;;31.61;11.33;99835.03;5092737;28;20059;-62
2023/04/24 04:34:04;;;;;;;15.13;8.95;;;;;;;32.11;10.89;99827.38;5092870;28;20082;-60
2023/04/24 04:36:30;;;;;;;17.30;9.05;;;;;;;32.62;10.73;99828.78;5092926;28;20488;-61
2023/04/24 04:38:56;;;;;;;13.35;8.70;;;;;;;33.20;10.41;99831.44;5075105;28;20034;-61
2023/04/24 04:41:22;;;;;;;14.63;9.13;;;;;;;33.72;9.67;99841.75;5074939;28;20051;-60
2023/04/24 04:43:48;;;;;;;13.35;9.45;;;;;;;34.27;9.40;99847.53;5092956;28;20032;-61
2023/04/24 04:46:13;;;;;;;14.43;8.93;;;;;;;34.87;8.97;99835.63;5093084;28;20024;-61
2023/04/24 04:48:39;;;;;;;13.82;9.23;;;;;;;35.31;8.85;99842.34;5074771;28;20032;-61
2023/04/24 04:51:05;;;;;;;20.10;8.90;;;;;;;35.45;8.72;99838.88;5092513;28;20032;-62
2023/04/24 04:53:30;;;;;;;18.20;8.73;;;;;;;35.99;7.98;99837.03;5092530;28;20152;-61
2023/04/24 04:55:56;;;;;;;16.40;8.60;;;;;;;36.46;7.88;99844.91;5091560;28;20431;-60
2023/04/24 04:58:22;;;;;;;13.63;8.90;;;;;;;36.71;7.84;99845.72;5092121;28;20107;-60
2023/04/24 05:00:48;;;;;;;13.15;8.60;;;;;;;37.00;7.63;99844.78;5092323;28;20058;-60
2023/04/24 05:03:13;;;;;;;17.90;9.23;;;;;;;37.34;7.30;99846.53;5074381;28;20047;-60
2023/04/24 05:05:40;;;;;;;15.23;8.93;;;;;;;37.76;6.80;99838.31;5074002;28;20031;-63
2023/04/24 05:08:07;;;;;;;13.10;9.05;;;;;;;38.31;6.66;99850.72;5091795;28;20028;-61
2023/04/24 05:10:32;;;;;;;14.30;9.20;;;;;;;38.75;6.43;99849.28;5092351;28;20031;-60
2023/04/24 05:12:58;;;;;;;15.30;8.88;;;;;;;38.91;6.73;99843.38;5092084;28;20032;-61
2023/04/24 05:15:24;;;;;;;16.38;8.75;;;;;;;39.29;6.13;99840.22;5092063;28;20038;-62
2023/04/24 05:17:49;;;;;;;14.45;8.98;;;;;;;39.63;6.20;99846.44;5074983;28;20028;-60
2023/04/24 05:20:15;;;;;;;15.25;7.85;;;;;;;39.85;6.04;99856.81;5092294;28;20063;-60
2023/04/24 05:22:40;;;;;;;9.73;8.10;;;;;;;40.25;5.91;99847.59;5074530;28;20028;-59
2023/04/24 05:25:06;;;;;;;15.95;8.35;;;;;;;40.51;5.57;99843.25;5092000;28;20131;-61
2023/04/24 05:27:32;;;;;;;32.17;9.88;;;;;;;40.43;5.68;99847.72;5092076;28;20078;-60
2023/04/24 05:29:57;;;;;;;13.13;8.32;;;;;;;40.62;5.45;99844.59;5092527;28;20107;-61
2023/04/24 05:32:23;;;;;;;12.32;8.18;;;;;;;41.05;5.46;99845.84;5092568;28;20059;-60
2023/04/24 05:34:48;;;;;;;17.67;7.18;;;;;;;41.45;4.94;99848.50;5092237;28;20059;-61
2023/04/24 05:37:14;;;;;;;14.50;7.32;;;;;;;41.45;5.01;99848.50;5092141;28;20036;-60
2023/04/24 05:39:40;;;;;;;14.90;7.63;;;;;;;41.61;4.90;99853.63;5092480;28;20048;-60
2023/04/24 05:42:06;;;;;;;13.63;7.45;;;;;;;41.88;4.91;99846.78;5092356;28;20499;-61
2023/04/24 05:44:32;;;;;;;14.30;7.45;;;;;;;42.07;4.37;99844.75;5091540;28;20113;-60
2023/04/24 05:46:57;;;;;;;11.57;7.95;;;;;;;42.39;4.25;99840.47;5092041;28;20039;-61
2023/04/24 05:49:23;;;;;;;11.73;7.20;;;;;;;42.83;4.08;99842.19;5092659;28;20036;-61
2023/04/24 05:51:48;;;;;;;14.57;7.47;;;;;;;43.15;4.26;99834.19;5075014;28;20024;-61
2023/04/24 05:54:14;;;;;;;15.48;7.05;;;;;;;43.58;3.74;99818.88;5074198;28;20043;-59
2023/04/24 05:56:40;;;;;;;13.07;7.53;;;;;;;44.22;3.81;99832.75;5090921;28;20036;-61
2023/04/24 05:59:05;;;;;;;13.50;7.28;;;;;;;44.49;3.54;99829.56;5092525;28;20036;-61
2023/04/24 06:01:31;;;;;;;11.45;6.35;;;;;;;44.83;3.65;99835.88;5092428;28;20027;-62
2023/04/24 06:03:57;;;;;;;10.23;7.00;;;;;;;44.82;3.35;99842.72;5092021;28;20024;-61
2023/04/24 06:06:24;;;;;;;10.55;6.13;;;;;;;44.69;3.17;99845.56;5074390;28;20107;-61
2023/04/24 06:08:49;;;;;;;11.63;5.80;;;;;;;44.67;3.07;99822.53;5074355;28;20348;-62
2023/04/24 06:11:15;;;;;;;15.57;6.30;;;;;;;44.62;3.11;99817.13;5091776;28;20142;-60
2023/04/24 06:13:40;;;;;;;12.40;6.50;;;;;;;45.04;3.28;99832.09;5091052;28;20028;-62
2023/04/24 06:16:06;;;;;;;7.13;5.43;;;;;;;45.02;2.79;99813.50;5091673;28;20104;-62
2023/04/24 06:18:31;;;;;;;12.80;6.22;;;;;;;45.43;3.00;99836.06;5091716;28;20028;-60
2023/04/24 06:20:57;;;;;;;8.95;6.10;;;;;;;45.74;2.72;99836.50;5094209;28;20523;-60
2023/04/24 06:23:22;;;;;;;10.50;6.18;;;;;;;46.10;2.65;99837.44;5094983;28;20031;-60
2023/04/24 06:25:48;;;;;;;9.80;5.68;;;;;;;46.08;2.83;99833.31;5095234;28;20433;-60
2023/04/24 06:28:13;;;;;;;10.57;5.72;;;;;;;46.03;2.70;99830.78;5077520;28;20028;-61
2023/04/24 06:30:39;;;;;;;11.85;5.88;;;;;;;46.82;2.64;99831.88;5094688;28;20080;-61
2023/04/24 06:33:04;;;;;;;9.75;6.10;;;;;;;47.43;2.26;99838.84;5094966;28;20382;-61
2023/04/24 06:35:30;;;;;;;8.10;5.50;;;;;;;47.64;2.13;99833.94;5078000;28;20064;-60
2023/04/24 06:37:56;;;;;;;10.55;6.40;;;;;;;48.08;2.20;99830.69;5060855;28;20115;-61
2023/04/24 06:40:22;;;;;;;11.65;6.22;;;;;;;48.57;1.86;99840.38;5095495;28;20134;-60
2023/04/24 06:42:48;;;;;;;11.63;5.88;;;;;;;49.19;1.43;99832.69;5095125;28;20044;-62
2023/04/24 06:45:13;;;;;;;12.43;5.88;;;;;;;49.12;1.25;99835.44;5095065;28;20092;-60
2023/04/24 06:47:39;;;;;;;10.40;6.03;;;;;;;48.75;1.77;99834.13;5094798;28;20052;-60
2023/04/24 06:50:05;;;;;;;8.43;5.70;;;;;;;48.03;2.04;99825.34;5095204;28;20039;-61
2023/04/24 06:52:35;;;;;;;11.23;5.47;;;;;;;47.92;1.57;99825.16;5077257;28;20028;-60
2023/04/24 06:55:04;;;;;;;7.30;5.15;;;;;;;47.71;2.11;99839.75;5094581;28;20024;-62
2023/04/24 06:57:31;;;;;;;8.88;5.55;;;;;;;48.07;1.97;99826.22;5095435;28;20152;-62
2023/04/24 06:59:57;;;;;;;11.18;5.63;;;;;;;48.50;1.40;99825.28;5077247;28;20115;-62
2023/04/24 07:02:23;;;;;;;11.77;5.47;;;;;;;48.49;1.56;99840.69;5095026;28;20036;-61
2023/04/24 07:04:49;;;;;;;9.40;6.25;;;;;;;48.46;1.42;99830.06;5076976;28;20047;-61
2023/04/24 07:07:15;;;;;;;7.15;5.70;;;;;;;48.64;1.60;99836.84;5094588;28;20089;-61
2023/04/24 07:09:45;;;;;;;11.30;5.72;;;;;;;48.22;1.40;99832.13;5076625;28;20082;-61
2023/04/24 07:12:11;;;;;;;12.35;5.25;;;;;;;46.99;1.88;99844.78;5094574;28;20039;-61
2023/04/24 07:14:37;;;;;;;9.18;5.13;;;;;;;46.18;2.12;99838.44;5094655;28;20035;-61
2023/04/24 07:17:05;;;;;;;10.75;5.85;;;;;;;45.58;2.30;99840.13;5094678;28;20024;-62
2023/04/24 07:19:30;;;;;;;14.63;5.43;;;;;;;45.35;2.56;99836.25;5094269;28;20115;-62
2023/04/24 07:21:58;;;;;;;14.27;5.22;;;;;;;46.43;2.11;99841.88;5094530;28;20095;-63
2023/04/24 07:24:24;;;;;;;9.30;5.40;;;;;;;47.24;1.99;99842.47;5059125;28;20165;-61
2023/04/24 07:26:51;;;;;;;5.65;4.40;;;;;;;47.23;1.83;99840.81;5090211;28;20535;-62
2023/04/24 07:29:17;;;;;;;6.18;4.75;;;;;;;47.54;1.74;99830.53;5093433;28;20030;-60
2023/04/24 07:31:42;;;;;;;10.18;4.88;;;;;;;47.50;1.63;99838.13;5093074;28;20410;-61
2023/04/24 07:34:08;;;;;;;6.38;4.40;;;;;;;47.62;1.54;99834.28;5076631;28;20024;-61
2023/04/24 07:36:34;;;;;;;12.52;4.35;;;;;;;48.53;1.54;99825.31;5094443;28;20032;-62
2023/04/24 07:39:00;;;;;;;9.73;4.88;;;;;;;49.06;1.10;99828.47;5093823;28;20035;-61
2023/04/24 07:41:27;;;;;;;8.57;5.03;;;;;;;49.20;0.96;99834.38;5093573;28;20031;-63
2023/04/24 07:43:53;;;;;;;7.57;5.15;;;;;;;49.61;0.72;99829.91;5093827;28;20040;-62
2023/04/24 07:46:20;;;;;;;9.90;4.85;;;;;;;49.65;0.72;99831.59;5094114;28;20038;-61
2023/04/24 07:48:47;;;;;;;14.77;5.32;;;;;;;49.33;1.08;99839.75;5092938;28;20036;-60
2023/04/24 07:51:14;;;;;;;10.85;5.75;;;;;;;49.23;0.99;99844.13;5093538;28;20035;-63
2023/04/24 07:53:40;;;;;;;7.95;5.07;;;;;;;48.48;1.47;99831.34;5072476;28;20115;-60
2023/04/24 07:56:05;;;;;;;11.52;4.60;;;;;;;47.45;1.36;99840.47;5090891;28;20119;-59
2023/04/24 07:58:31;;;;;;;4.90;4.45;;;;;;;46.39;1.73;99832.50;5075704;28;20035;-59
2023/04/24 08:00:56;;;;;;;9.68;4.82;;;;;;;45.70;2.02;99821.44;5093827;28;20039;-59
2023/04/24 08:03:22;;;;;;;6.95;4.90;;;;;;;45.26;2.02;99808.13;5091770;28;20028;-58
2023/04/24 08:05:48;;;;;;;7.50;4.65;;;;;;;44.74;2.22;99810.63;5093124;28;20036;-57
2023/04/24 08:08:13;;;;;;;6.57;4.90;;;;;;;43.53;3.31;99813.47;5085326;28;20063;-64
2023/04/24 08:10:39;;;;;;;7.25;5.03;;;;;;;41.22;4.07;99824.56;5068078;28;20028;-66
2023/04/24 08:13:05;;;;;;;7.60;5.78;;;;;;;38.56;5.13;99817.81;5092335;28;20369;-63
2023/04/24 08:15:30;;;;;;;5.53;4.78;;;;;;;35.83;6.31;99811.28;5091778;28;20035;-60
2023/04/24 08:17:57;;;;;;;7.45;4.90;;;;;;;33.90;7.71;99818.16;5092735;28;20350;-62
2023/04/24 08:20:22;;;;;;;6.72;5.05;;;;;;;32.37;8.04;99810.94;5073699;28;20346;-61
2023/04/24 08:22:48;;;;;;;10.07;5.00;;;;;;;31.32;9.27;99802.97;5089889;28;20458;-61
2023/04/24 08:25:14;;;;;;;12.73;5.45;;;;;;;30.41;9.88;99810.78;5091904;28;20032;-63
2023/04/24 08:27:40;;;;;;;10.48;5.28;;;;;;;29.58;10.47;99817.81;5090266;28;20105;-61
2023/04/24 08:30:06;;;;;;;10.50;5.70;;;;;;;28.85;10.71;99828.59;5074076;28;20020;-62
2023/04/24 08:32:33;;;;;;;9.95;5.18;;;;;;;28.15;11.36;99817.47;5091195;28;20509;-60
2023/04/24 08:34:59;;;;;;;7.97;5.20;;;;;;;27.70;11.83;99819.75;5091799;28;20039;-62
2023/04/24 08:37:26;;;;;;;5.97;5.05;;;;;;;27.27;11.58;99816.16;5091605;28;20024;-61
2023/04/24 08:39:52;;;;;;;7.07;5.43;;;;;;;26.79;12.28;99806.88;5091586;28;20458;-61
2023/04/24 08:42:19;;;;;;;10.23;5.75;;;;;;;26.69;12.69;99814.84;5090956;28;20035;-62
2023/04/24 08:44:46;;;;;;;10.18;5.30;;;;;;;26.51;13.05;99786.31;5091703;28;20493;-61
2023/04/24 08:47:12;;;;;;;10.45;5.40;;;;;;;26.66;12.97;99810.63;5073367;28;20446;-62
2023/04/24 08:49:38;;;;;;;11.88;5.05;;;;;;;26.73;12.70;99797.66;5091421;28;20035;-62
2023/04/24 08:52:07;;;;;;;6.82;4.93;;;;;;;26.88;13.02;99791.75;5090913;28;20016;-62
2023/04/24 08:54:36;;;;;;;8.05;5.03;;;;;;;26.88;12.95;99790.94;5090889;28;20059;-60
2023/04/24 08:57:05;;;;;;;12.18;5.95;;;;;;;26.78;12.76;99792.31;5090680;28;20118;-58
2023/04/24 08:59:31;;;;;;;9.27;5.43;;;;;;;26.57;12.65;99782.66;5089341;28;20028;-62
2023/04/24 09:01:57;;;;;;;6.97;5.78;;;;;;;26.36;12.95;99783.97;5092166;28;20469;-63
2023/04/24 09:04:24;;;;;;;7.50;5.70;;;;;;;26.20;13.08;99791.75;5091590;28;20032;-61
2023/04/24 09:06:52;;;;;;;6.88;5.80;;;;;;;25.99;13.01;99775.69;5092208;28;20032;-62
2023/04/24 09:09:18;;;;;;;9.15;5.78;;;;;;;25.86;13.26;99773.94;5092239;28;20382;-62
2023/04/24 09:11:44;;;;;;;5.47;4.93;;;;;;;25.74;12.90;99780.16;5091925;28;20370;-62
2023/04/24 09:14:10;;;;;;;6.63;5.15;;;;;;;25.69;13.08;99765.44;5074132;28;20036;-64
2023/04/24 09:16:36;;;;;;;7.63;5.20;;;;;;;25.82;12.85;99786.41;5091699;28;20043;-61
2023/04/24 09:19:03;;;;;;;8.73;4.90;;;;;;;25.61;13.13;99750.97;5091913;28;20028;-61
2023/04/24 09:21:35;;;;;;;11.82;5.78;;;;;;;25.84;12.70;99768.69;5074056;28;20097;-60
2023/04/24 09:24:05;;;;;;;8.98;4.97;;;;;;;25.79;12.98;99783.06;5088620;28;20116;-62
2023/04/24 09:26:32;;;;;;;5.63;4.97;;;;;;;25.49;13.31;99777.44;5073086;28;20027;-62
2023/04/24 09:28:58;;;;;;;7.43;4.93;;;;;;;25.14;13.88;99780.63;5089055;28;20515;-62
2023/04/24 09:31:27;;;;;;;6.72;5.20;;;;;;;24.97;14.17;99772.94;5090354;28;20474;-60
2023/04/24 09:34:00;;;;;;;8.70;5.10;;;;;;;24.89;13.91;99764.97;5056177;28;20403;-60
2023/04/24 09:36:34;;;;;;;10.00;5.43;;;;;;;24.79;14.78;99768.19;5091030;28;20124;-62
2023/04/24 09:39:01;;;;;;;7.13;5.43;;;;;;;24.78;15.13;99763.78;5090313;28;20056;-62
2023/04/24 09:41:28;;;;;;;8.80;5.25;;;;;;;24.80;14.85;99734.28;5091657;28;20047;-62
2023/04/24 09:43:56;;;;;;;7.82;5.43;;;;;;;25.00;14.81;99725.09;5071931;28;20068;-61
2023/04/24 09:46:28;;;;;;;11.48;6.10;;;;;;;25.26;14.78;99754.19;5056016;28;20082;-62
2023/04/24 09:48:54;;;;;;;7.85;5.72;;;;;;;25.29;14.89;99748.25;5090545;28;20058;-64
2023/04/24 09:51:34;;;;;;;8.98;5.50;;;;;;;25.44;14.29;99753.41;5073075;28;20056;-63
2023/04/24 09:53:59;;;;;;;6.93;5.40;;;;;;;25.45;14.03;99738.66;5088554;28;20024;-63
2023/04/24 09:56:26;;;;;;;7.82;4.53;;;;;;;25.31;13.90;99717.91;5074925;28;20415;-61
2023/04/24 09:58:51;;;;;;;19.58;5.50;;;;;;;25.44;13.83;99736.13;5093660;28;20093;-62
2023/04/24 10:01:30;;;;;;;7.93;4.80;;;;;;;25.56;13.49;99739.00;5094381;28;20031;-59
2023/04/24 10:03:55;;;;;;;7.90;4.30;;;;;;;25.44;13.19;99736.13;5059390;28;20036;-62
2023/04/24 10:06:21;;;;;;;10.85;5.07;;;;;;;25.30;13.19;99727.19;5093891;28;20036;-65
2023/04/24 10:08:48;;;;;;;8.32;5.38;;;;;;;25.02;13.77;99734.75;5094045;28;20118;-61
2023/04/24 10:11:14;;;;;;;6.65;5.10;;;;;;;24.57;14.00;99737.53;5076340;28;20024;-61
2023/04/24 10:13:40;;;;;;;6.03;4.65;;;;;;;23.88;14.51;99689.63;5093751;28;20024;-60
2023/04/24 10:16:07;;;;;;;5.20;4.60;;;;;;;23.97;14.87;99739.41;5094022;28;20020;-64
2023/04/24 10:18:33;;;;;;;6.75;4.82;;;;;;;23.88;14.92;99735.22;5094213;28;20028;-63
2023/04/24 10:21:01;;;;;;;6.75;5.03;;;;;;;23.78;15.63;99709.19;5095578;28;20032;-61
2023/04/24 10:23:27;;;;;;;9.63;5.03;;;;;;;24.13;15.30;99737.31;5077433;28;20043;-61
2023/04/24 10:25:54;;;;;;;7.43;4.78;;;;;;;24.31;14.73;99731.13;5094897;28;20482;-61
2023/04/24 10:28:20;;;;;;;12.57;4.65;;;;;;;24.48;14.76;99735.06;5094684;28;20441;-62
2023/04/24 10:30:47;;;;;;;8.57;4.70;;;;;;;24.58;14.58;99722.78;5094564;28;20034;-62
2023/04/24 10:33:13;;;;;;;9.43;5.40;;;;;;;24.75;14.81;99726.72;5094672;28;20046;-62
2023/04/24 10:35:44;;;;;;;6.65;4.63;;;;;;;24.62;14.27;99699.41;5094761;28;20423;-62
2023/04/24 10:38:13;;;;;;;7.28;4.57;;;;;;;24.59;14.26;99716.25;5094944;28;20047;-62
2023/04/24 10:40:39;;;;;;;11.52;4.60;;;;;;;24.28;14.47;99726.09;5094949;28;20462;-61
2023/04/24 10:43:08;;;;;;;6.03;4.80;;;;;;;24.00;14.47;99724.47;5093973;28;20036;-62
2023/04/24 10:45:34;;;;;;;8.50;5.07;;;;;;;23.82;14.79;99717.78;5094679;28;20032;-62
2023/04/24 10:48:10;;;;;;;8.25;4.75;;;;;;;23.84;14.84;99712.94;5095453;28;20507;-61
2023/04/24 10:50:45;;;;;;;7.20;4.97;;;;;;;23.81;14.84;99713.38;5094795;28;20093;-62
2023/04/24 10:53:19;;;;;;;6.05;4.55;;;;;;;23.85;14.88;99708.34;5093549;28;20032;-62
2023/04/24 10:55:50;;;;;;;6.03;4.65;;;;;;;23.91;15.02;99702.84;5077221;28;20359;-61
2023/04/24 10:58:21;;;;;;;6.22;5.18;;;;;;;24.07;15.34;99711.66;5059598;28;20078;-62
2023/04/24 11:00:56;;;;;;;14.93;4.90;;;;;;;24.33;14.86;99707.13;5094704;28;20119;-62
2023/04/24 11:03:30;;;;;;;7.20;4.78;;;;;;;24.50;14.52;99699.28;5076623;28;20023;-61
2023/04/24 11:06:07;;;;;;;9.73;5.03;;;;;;;24.64;14.49;99708.25;5076767;28;20035;-57
2023/04/24 11:08:44;;;;;;;7.90;4.93;;;;;;;24.44;14.78;99702.84;5075503;28;20020;-65
2023/04/24 11:11:15;;;;;;;12.77;5.13;;;;;;;24.24;14.94;99712.03;5094091;28;20035;-63
2023/04/24 11:13:56;;;;;;;6.63;4.72;;;;;;;24.18;14.77;99700.03;5091888;28;20031;-62
2023/04/24 11:16:33;;;;;;;9.35;4.82;;;;;;;24.08;14.64;99703.25;5094848;28;20036;-62
2023/04/24 11:19:02;;;;;;;7.03;4.38;;;;;;;23.97;15.01;99686.63;5076350;28;20118;-62
2023/04/24 11:21:38;;;;;;;13.05;4.95;;;;;;;23.87;14.84;99701.59;5074774;28;20032;-61
2023/04/24 11:24:23;;;;;;;7.90;5.10;;;;;;;23.83;14.77;99702.25;5091920;28;20454;-66
2023/04/24 11:26:52;;;;;;;10.27;4.40;;;;;;;23.59;15.29;99702.69;5092658;28;20456;-61